Time;durP1;ratioP1;P1;durP2;ratioP2;P2;SDS_P1;SDS_P2;PMS_P1;PMS_P2;Temp;Humidity;BMP_temperature;BMP_pressure;BME280_temperature;BME280_humidity;BME280_pressure;Samples;Min_cycle;Max_cycle;Signal;HPM_P1;HPM_P2
2022/09/16 03:57:54;;;;;;;9.57;8.63;;;;;;;20.34;54.81;92319.25;5129925;27;20353;-73
2022/09/16 04:00:21;;;;;;;9.57;8.97;;;;;;;20.53;55.93;92377.66;5098228;27;20253;-74
2022/09/16 04:02:46;;;;;;;9.80;8.40;;;;;;;20.47;56.72;92394.94;5081280;28;20578;-74
2022/09/16 04:05:11;;;;;;;8.97;8.27;;;;;;;20.42;56.66;92402.41;5080089;28;20276;-72
2022/09/16 04:07:37;;;;;;;10.43;9.43;;;;;;;20.70;55.74;92419.72;5081254;28;20275;-74
2022/09/16 04:10:04;;;;;;;14.37;8.87;;;;;;;20.49;56.48;92410.50;5086389;28;20227;-74
2022/09/16 04:12:29;;;;;;;11.10;8.27;;;;;;;20.21;57.97;92420.44;5085855;28;20243;-72
2022/09/16 04:14:55;;;;;;;9.10;8.30;;;;;;;20.05;58.18;92436.31;5083462;28;20219;-72
2022/09/16 04:17:20;;;;;;;10.93;8.53;;;;;;;19.98;59.71;92456.56;5085830;28;20211;-73
2022/09/16 04:19:45;;;;;;;8.87;8.17;;;;;;;19.75;59.54;92429.81;5073606;28;20224;-72
2022/09/16 04:22:11;;;;;;;9.50;8.60;;;;;;;19.75;60.11;92466.91;5066721;28;20215;-72
2022/09/16 04:24:36;;;;;;;9.20;8.43;;;;;;;19.86;60.09;92470.63;5073387;28;20216;-70
2022/09/16 04:27:01;;;;;;;10.10;9.23;;;;;;;19.71;61.66;92462.63;5087064;28;20198;-70
2022/09/16 04:29:27;;;;;;;8.73;8.10;;;;;;;19.66;61.27;92466.28;5077469;28;20213;-70
2022/09/16 04:31:53;;;;;;;10.73;8.50;;;;;;;19.89;60.92;92450.66;5066552;28;20213;-71
2022/09/16 04:34:19;;;;;;;9.83;8.60;;;;;;;19.85;61.77;92455.06;5061022;28;20219;-69
2022/09/16 04:36:44;;;;;;;9.83;8.80;;;;;;;19.82;61.44;92437.19;5085427;28;20227;-72
2022/09/16 04:39:11;;;;;;;9.87;9.03;;;;;;;19.98;60.31;92444.09;5084395;28;20224;-71
2022/09/16 04:41:37;;;;;;;9.40;8.50;;;;;;;19.92;62.26;92442.78;5086573;28;20206;-73
2022/09/16 04:44:02;;;;;;;9.30;8.73;;;;;;;20.02;61.85;92441.50;5085930;28;20228;-74
2022/09/16 04:46:29;;;;;;;10.43;9.27;;;;;;;19.98;62.07;92438.00;5086197;28;20188;-74
2022/09/16 04:48:55;;;;;;;13.07;8.35;;;;;;;19.96;61.67;92427.75;5084896;28;20253;-74
2022/09/16 04:51:22;;;;;;;17.45;9.43;;;;;;;20.10;62.74;92448.53;5085839;28;20180;-74
2022/09/16 04:53:48;;;;;;;13.70;12.27;;;;;;;20.33;59.77;92458.25;5085349;28;20184;-74
2022/09/16 04:56:19;;;;;;;20.55;9.20;;;;;;;20.25;62.16;92463.75;5085035;28;20234;-73
2022/09/16 04:58:50;;;;;;;9.85;8.98;;;;;;;20.10;61.65;92453.84;5085220;28;20952;-74
2022/09/16 05:01:21;;;;;;;13.95;9.88;;;;;;;20.14;61.90;92428.22;5084541;28;20184;-74
2022/09/16 05:03:49;;;;;;;11.13;9.82;;;;;;;20.42;61.68;92447.50;5084221;28;20172;-74
2022/09/16 05:06:24;;;;;;;15.60;10.45;;;;;;;20.52;62.23;92445.09;5085018;28;20176;-73
2022/09/16 05:08:52;;;;;;;14.55;9.02;;;;;;;20.60;62.07;92444.16;5072346;28;20189;-73
2022/09/16 05:11:26;;;;;;;11.38;8.85;;;;;;;20.69;61.50;92455.34;5071288;28;20232;-73
2022/09/16 05:13:52;;;;;;;11.88;10.55;;;;;;;20.67;61.42;92460.22;5059423;28;20187;-73
2022/09/16 05:16:20;;;;;;;11.68;9.85;;;;;;;20.81;60.81;92456.38;5071601;28;20216;-73
2022/09/16 05:18:47;;;;;;;10.85;9.07;;;;;;;20.99;60.84;92454.91;5071283;28;20183;-74
2022/09/16 05:21:19;;;;;;;12.05;9.15;;;;;;;21.06;60.55;92449.75;5071876;28;20175;-73
2022/09/16 05:23:45;;;;;;;11.35;9.00;;;;;;;21.20;60.77;92444.75;5071512;28;20185;-73
2022/09/16 05:26:13;;;;;;;12.30;9.48;;;;;;;21.40;60.83;92433.78;5071976;28;20321;-73
2022/09/16 05:28:39;;;;;;;10.23;8.50;;;;;;;21.72;59.41;92432.53;5068994;28;20229;-74
2022/09/16 05:31:12;;;;;;;14.68;9.25;;;;;;;22.01;58.73;92428.53;5068695;28;20188;-74
2022/09/16 05:33:39;;;;;;;7.90;7.32;;;;;;;22.34;54.33;92435.94;5071500;28;20234;-74
2022/09/16 05:36:16;;;;;;;9.43;8.40;;;;;;;22.57;51.28;92431.44;5069321;28;20211;-73
2022/09/16 05:38:42;;;;;;;9.13;8.40;;;;;;;22.27;53.89;92441.94;5067256;28;20195;-73
2022/09/16 05:41:07;;;;;;;12.65;7.53;;;;;;;22.42;51.61;92430.41;5068576;28;20187;-73
2022/09/16 05:43:33;;;;;;;11.38;8.05;;;;;;;22.07;53.88;92433.22;5066339;28;20195;-72
2022/09/16 05:46:00;;;;;;;8.52;7.72;;;;;;;22.35;52.96;92430.28;5068313;28;20202;-73
2022/09/16 05:48:26;;;;;;;8.70;7.63;;;;;;;22.37;52.02;92428.03;5070388;28;20191;-73
2022/09/16 05:50:56;;;;;;;13.18;7.75;;;;;;;22.16;51.76;92425.03;5069791;28;20259;-73
2022/09/16 05:53:23;;;;;;;11.77;8.70;;;;;;;22.07;52.33;92435.13;5069706;28;20184;-74
2022/09/16 05:56:01;;;;;;;10.80;8.45;;;;;;;22.31;52.36;92431.34;5069298;28;20947;-73
2022/09/16 05:58:28;;;;;;;12.05;8.38;;;;;;;22.34;53.28;92436.72;5069103;28;20216;-72
2022/09/16 06:01:06;;;;;;;9.27;8.43;;;;;;;22.48;51.74;92431.66;5069194;28;20235;-72
2022/09/16 06:03:33;;;;;;;14.05;7.50;;;;;;;23.03;50.59;92435.56;5065842;28;20177;-71
2022/09/16 06:06:29;;;;;;;11.07;7.88;;;;;;;22.99;50.61;92432.84;5069702;28;20225;-72
2022/09/16 06:08:57;;;;;;;10.68;7.65;;;;;;;22.88;51.17;92445.22;5067397;28;20224;-75
2022/09/16 06:11:23;;;;;;;8.85;7.90;;;;;;;23.17;50.43;92428.56;5049877;28;20188;-74
2022/09/16 06:13:57;;;;;;;8.68;7.97;;;;;;;23.14;51.11;92434.59;5050902;28;20197;-72
2022/09/16 06:16:26;;;;;;;10.15;8.70;;;;;;;23.09;50.13;92429.59;5071091;28;20208;-73
2022/09/16 06:18:56;;;;;;;13.25;8.10;;;;;;;22.74;53.99;92429.03;5068116;28;20206;-73
2022/09/16 06:21:22;;;;;;;9.50;8.68;;;;;;;22.59;51.54;92432.63;5069453;28;20245;-74
2022/09/16 06:23:47;;;;;;;8.20;7.53;;;;;;;22.76;50.72;92426.03;5069240;28;20187;-74
2022/09/16 06:26:24;;;;;;;9.38;7.97;;;;;;;22.97;50.29;92421.81;5066214;28;20195;-74
2022/09/16 06:28:51;;;;;;;9.77;7.97;;;;;;;22.74;51.53;92422.97;5066952;28;20187;-73
2022/09/16 06:31:19;;;;;;;7.95;7.18;;;;;;;23.10;49.77;92423.13;5067173;28;20223;-74
2022/09/16 06:33:45;;;;;;;8.57;7.88;;;;;;;23.32;47.80;92424.97;5067962;28;20234;-73
2022/09/16 06:36:22;;;;;;;11.40;8.23;;;;;;;23.15;51.26;92428.13;5066547;28;20204;-72
2022/09/16 06:38:47;;;;;;;9.85;7.75;;;;;;;23.16;49.51;92426.25;5069236;28;20187;-74
2022/09/16 06:41:14;;;;;;;11.02;8.07;;;;;;;23.34;48.54;92429.94;5066599;28;20184;-74
2022/09/16 06:43:40;;;;;;;8.70;7.85;;;;;;;23.07;50.36;92429.16;5068761;28;20210;-73
2022/09/16 06:46:17;;;;;;;11.18;8.57;;;;;;;23.22;49.48;92428.22;5069111;28;20211;-74
2022/09/16 06:48:49;;;;;;;9.85;7.18;;;;;;;23.08;50.51;92444.00;5069351;28;20199;-73
2022/09/16 06:51:17;;;;;;;10.52;8.48;;;;;;;23.05;49.58;92442.06;5068861;28;20172;-73
2022/09/16 06:53:43;;;;;;;11.32;7.72;;;;;;;23.63;47.53;92445.94;5068678;28;20223;-74
2022/09/16 06:56:11;;;;;;;12.32;8.88;;;;;;;23.43;48.45;92439.19;5068815;28;20225;-73
2022/09/16 06:58:38;;;;;;;8.68;7.82;;;;;;;23.48;48.98;92444.22;5067987;28;20188;-75
2022/09/16 07:01:06;;;;;;;9.88;8.02;;;;;;;23.09;48.68;92444.78;5037896;28;20215;-74
2022/09/16 07:03:31;;;;;;;9.40;8.50;;;;;;;23.45;48.04;92426.28;5045318;28;20663;-72
2022/09/16 07:06:00;;;;;;;8.80;7.97;;;;;;;23.77;47.13;92442.66;5039655;28;20237;-71
2022/09/16 07:08:27;;;;;;;15.98;8.00;;;;;;;23.46;47.28;92446.47;5048815;28;20245;-73
2022/09/16 07:11:05;;;;;;;9.10;8.30;;;;;;;23.47;46.19;92394.69;5068652;28;20285;-72
2022/09/16 07:13:31;;;;;;;8.40;7.60;;;;;;;23.78;45.11;92447.63;5072073;28;20186;-72
2022/09/16 07:16:01;;;;;;;7.97;7.50;;;;;;;23.86;45.72;92450.38;5066531;28;20229;-71
2022/09/16 07:18:29;;;;;;;13.93;7.70;;;;;;;23.43;46.70;92441.09;5065491;28;20218;-73
2022/09/16 07:21:03;;;;;;;9.43;8.70;;;;;;;23.93;44.88;92437.13;5067843;28;20274;-75
2022/09/16 07:23:34;;;;;;;12.55;7.65;;;;;;;24.01;45.51;92438.75;5066137;28;20207;-72
2022/09/16 07:26:00;;;;;;;15.90;7.82;;;;;;;23.93;45.17;92439.78;5067982;28;20245;-73
2022/09/16 07:28:26;;;;;;;8.77;7.10;;;;;;;23.84;45.74;92423.31;5074495;28;20193;-74
2022/09/16 07:30:51;;;;;;;8.43;7.63;;;;;;;24.11;44.42;92440.78;5067181;28;20239;-73
2022/09/16 07:33:17;;;;;;;8.57;7.97;;;;;;;24.12;45.31;92431.66;5068949;28;20179;-74
2022/09/16 07:35:42;;;;;;;8.63;7.78;;;;;;;23.94;45.77;92426.09;5068165;28;20215;-73
2022/09/16 07:38:07;;;;;;;9.38;8.23;;;;;;;24.33;44.80;92432.63;5069077;28;20179;-70
2022/09/16 07:40:33;;;;;;;11.18;7.53;;;;;;;24.17;45.31;92444.66;5065488;28;20959;-72
2022/09/16 07:42:59;;;;;;;9.60;7.72;;;;;;;24.39;45.37;92417.06;5068261;28;20184;-72
2022/09/16 07:45:24;;;;;;;9.43;7.50;;;;;;;23.90;46.93;92429.84;5067455;28;20244;-72
2022/09/16 07:47:49;;;;;;;8.32;7.50;;;;;;;23.81;46.66;92413.38;5068779;28;20222;-72
2022/09/16 07:50:15;;;;;;;8.70;7.90;;;;;;;24.02;46.16;92418.94;5053432;28;20224;-73
2022/09/16 07:52:41;;;;;;;9.90;7.80;;;;;;;24.34;44.30;92417.38;5048385;28;20193;-72
2022/09/16 07:55:06;;;;;;;11.73;8.25;;;;;;;23.89;45.81;92412.31;5055868;28;20224;-72
2022/09/16 07:57:31;;;;;;;10.27;8.27;;;;;;;24.18;45.24;92414.94;5067901;28;20244;-72
2022/09/16 07:59:57;;;;;;;9.48;8.45;;;;;;;24.53;45.02;92415.25;5065318;28;20231;-72
2022/09/16 08:02:22;;;;;;;9.60;8.68;;;;;;;24.71;45.15;92410.09;5064266;28;20226;-74
2022/09/16 08:04:47;;;;;;;13.30;8.75;;;;;;;24.94;44.88;92397.28;5066677;28;20229;-74
2022/09/16 08:07:13;;;;;;;14.18;7.18;;;;;;;24.63;46.56;92401.25;5068723;28;20225;-73
2022/09/16 08:09:41;;;;;;;14.35;8.30;;;;;;;24.96;44.89;92414.50;5067853;28;20234;-73
2022/09/16 08:12:09;;;;;;;9.13;7.57;;;;;;;24.71;45.09;92400.19;5068519;28;20198;-73
2022/09/16 08:14:35;;;;;;;12.52;8.63;;;;;;;25.16;45.29;92406.97;5055909;28;20310;-73
2022/09/16 08:17:02;;;;;;;14.02;8.23;;;;;;;25.15;45.04;92408.88;5068042;28;20207;-71
2022/09/16 08:19:27;;;;;;;8.68;8.13;;;;;;;25.73;43.07;92387.41;5067909;28;20243;-71
2022/09/16 08:21:53;;;;;;;8.45;7.45;;;;;;;25.31;44.04;92400.56;5068433;28;20196;-73
2022/09/16 08:24:18;;;;;;;8.80;7.95;;;;;;;25.76;43.03;92405.38;5067677;28;21011;-73
2022/09/16 08:26:43;;;;;;;9.30;7.90;;;;;;;26.24;41.40;92404.00;5053888;28;20186;-74
2022/09/16 08:29:09;;;;;;;15.90;8.88;;;;;;;26.28;41.64;92396.75;5067417;28;20220;-73
2022/09/16 08:31:35;;;;;;;11.57;8.20;;;;;;;26.32;40.19;92380.72;5068493;28;20203;-73
2022/09/16 08:34:00;;;;;;;13.88;7.85;;;;;;;26.26;42.51;92404.41;5059218;28;20248;-74
2022/09/16 08:36:25;;;;;;;8.73;7.80;;;;;;;26.51;41.21;92396.38;5068045;28;20280;-74
2022/09/16 08:38:54;;;;;;;11.25;8.32;;;;;;;26.50;41.52;92392.97;5064197;28;20200;-72
2022/09/16 08:42:01;;;;;;;8.45;7.55;;;;;;;26.13;41.66;92397.13;5057300;28;20188;-73
2022/09/16 08:44:50;;;;;;;13.48;7.13;;;;;;;26.51;41.33;92389.13;5068828;28;20302;-71
2022/09/16 08:47:28;;;;;;;11.18;7.53;;;;;;;26.34;40.59;92389.88;5069202;28;20990;-73
2022/09/16 08:49:54;;;;;;;8.57;7.72;;;;;;;26.19;42.05;92380.31;5066436;28;20233;-72
2022/09/16 08:52:34;;;;;;;13.00;9.02;;;;;;;25.73;44.27;92378.63;5071181;28;20273;-72
2022/09/16 08:55:08;;;;;;;10.45;8.35;;;;;;;26.34;42.21;92375.72;5071324;28;20241;-71
2022/09/16 08:57:40;;;;;;;12.45;7.10;;;;;;;26.67;41.69;92368.13;5069985;28;20239;-73
2022/09/16 09:00:18;;;;;;;8.20;7.43;;;;;;;26.87;40.99;92365.78;5057856;28;20728;-71
2022/09/16 09:02:54;;;;;;;8.25;7.50;;;;;;;26.76;41.28;92372.34;5046835;28;20206;-73
2022/09/16 09:05:55;;;;;;;8.88;7.97;;;;;;;26.61;41.29;92377.66;5064302;28;20220;-73
2022/09/16 09:09:02;;;;;;;9.07;7.72;;;;;;;26.59;41.93;92381.84;5068592;28;20213;-73
2022/09/16 09:12:04;;;;;;;11.20;8.60;;;;;;;26.88;41.38;92374.63;5062836;28;20201;-70
2022/09/16 09:14:33;;;;;;;16.77;8.90;;;;;;;26.81;43.90;92388.00;5069513;28;20227;-72
2022/09/16 09:17:13;;;;;;;8.55;7.75;;;;;;;26.63;41.71;92380.72;5071001;28;20220;-73
2022/09/16 09:20:06;;;;;;;11.73;7.88;;;;;;;26.81;40.98;92382.63;5070759;28;20235;-73
2022/09/16 09:22:32;;;;;;;9.27;8.35;;;;;;;27.02;41.78;92383.38;5071347;28;20185;-72
2022/09/16 09:25:19;;;;;;;11.38;8.00;;;;;;;26.93;41.51;92384.94;5070666;28;20237;-73
2022/09/16 09:27:53;;;;;;;7.53;7.03;;;;;;;27.33;41.83;92381.84;5066251;28;20736;-72
2022/09/16 09:30:27;;;;;;;12.40;7.78;;;;;;;27.27;39.94;92373.41;5070254;28;20326;-74
2022/09/16 09:33:04;;;;;;;10.23;7.55;;;;;;;26.42;41.09;92394.09;5071514;28;20185;-74
2022/09/16 09:35:39;;;;;;;20.30;7.55;;;;;;;26.79;42.08;92380.34;5069064;28;20229;-74
2022/09/16 09:38:13;;;;;;;11.90;7.60;;;;;;;27.17;41.94;92384.13;5063492;28;20207;-73
2022/09/16 09:40:53;;;;;;;13.25;7.97;;;;;;;26.79;40.99;92372.31;5066107;28;20233;-73
2022/09/16 09:43:30;;;;;;;13.23;7.65;;;;;;;27.12;41.90;92392.56;5071119;28;20181;-72
2022/09/16 09:46:09;;;;;;;12.07;7.85;;;;;;;27.22;42.00;92399.81;5070549;28;20232;-72
2022/09/16 09:48:40;;;;;;;8.65;7.82;;;;;;;27.08;41.54;92406.00;5068690;28;20239;-71
2022/09/16 09:51:23;;;;;;;10.77;8.07;;;;;;;26.97;41.35;92396.41;5067508;28;20353;-72
2022/09/16 09:53:55;;;;;;;9.18;7.40;;;;;;;26.61;42.99;92398.31;5064311;28;20220;-68
2022/09/16 09:56:32;;;;;;;15.63;8.77;;;;;;;26.50;42.95;92394.88;5068208;28;20254;-70
2022/09/16 09:59:11;;;;;;;10.45;7.88;;;;;;;26.79;41.87;92398.34;5064348;28;20329;-69
2022/09/16 10:01:36;;;;;;;10.55;7.68;;;;;;;26.11;43.31;92384.09;5075071;28;20173;-73
2022/09/16 10:04:04;;;;;;;11.05;8.45;;;;;;;25.94;43.92;92406.22;5070118;28;20240;-71
2022/09/16 10:06:34;;;;;;;9.25;8.32;;;;;;;25.81;45.28;92413.03;5064571;28;20182;-72
2022/09/16 10:09:00;;;;;;;15.13;8.93;;;;;;;25.92;45.39;92429.91;5064912;28;20264;-68
2022/09/16 10:11:29;;;;;;;12.10;10.07;;;;;;;25.74;45.56;92434.41;5069760;28;20174;-73
2022/09/16 10:13:58;;;;;;;12.63;8.23;;;;;;;25.63;45.90;92443.53;5068649;28;20223;-71
2022/09/16 10:16:38;;;;;;;11.65;8.23;;;;;;;25.17;47.75;92457.38;5069929;28;20217;-70
2022/09/16 10:19:07;;;;;;;10.25;8.70;;;;;;;24.77;48.29;92472.69;5069920;28;20213;-73
2022/09/16 10:21:50;;;;;;;8.48;7.78;;;;;;;24.31;50.29;92455.47;5070421;28;20185;-72
2022/09/16 10:24:26;;;;;;;10.50;8.70;;;;;;;24.04;51.44;92512.72;5069439;28;20952;-71
2022/09/16 10:26:52;;;;;;;13.57;9.77;;;;;;;23.69;53.85;92494.34;5058882;28;20173;-72
2022/09/16 10:29:20;;;;;;;12.68;9.65;;;;;;;23.50;58.50;92535.22;5069594;28;20235;-72
2022/09/16 10:31:46;;;;;;;10.13;9.13;;;;;;;22.98;61.90;92547.72;5069949;28;21005;-72
2022/09/16 10:34:41;;;;;;;10.52;8.80;;;;;;;22.56;63.06;92571.72;5068888;28;20292;-72
2022/09/16 10:37:12;;;;;;;9.93;8.98;;;;;;;21.81;67.67;92583.84;5063129;28;20227;-72
2022/09/16 10:40:06;;;;;;;8.93;8.23;;;;;;;21.70;66.48;92582.81;5067219;28;20236;-72
2022/09/16 10:42:31;;;;;;;8.35;7.72;;;;;;;21.46;67.17;92553.84;5068860;28;20252;-71
2022/09/16 10:45:09;;;;;;;9.07;8.38;;;;;;;21.61;71.01;92576.94;5069923;28;20677;-72
2022/09/16 10:47:35;;;;;;;9.95;8.88;;;;;;;20.73;73.19;92553.63;5070473;28;20184;-72
2022/09/16 10:50:04;;;;;;;8.60;8.10;;;;;;;20.27;75.74;92544.47;5069629;28;20208;-72
2022/09/16 10:52:39;;;;;;;8.23;7.60;;;;;;;20.05;75.62;92547.63;5068248;28;20186;-72
2022/09/16 10:55:19;;;;;;;9.13;8.10;;;;;;;19.78;77.65;92532.47;5069855;28;20232;-71
2022/09/16 10:57:45;;;;;;;7.47;7.10;;;;;;;19.77;73.92;92507.09;5060331;28;20250;-70
2022/09/16 11:00:24;;;;;;;7.80;7.33;;;;;;;19.94;74.66;92488.25;5069453;28;20227;-73
2022/09/16 11:03:06;;;;;;;7.50;6.90;;;;;;;19.92;72.68;92476.47;5070037;28;20254;-72
2022/09/16 11:05:43;;;;;;;7.80;7.27;;;;;;;20.18;69.87;92493.47;5067047;28;20218;-70
2022/09/16 11:08:27;;;;;;;8.40;7.87;;;;;;;20.32;65.68;92477.94;5069795;28;20211;-71
2022/09/16 11:11:06;;;;;;;6.90;6.60;;;;;;;20.69;65.74;92449.25;5066921;28;20235;-71
2022/09/16 11:13:50;;;;;;;7.23;6.93;;;;;;;21.39;63.05;92444.75;5069720;28;20188;-71
2022/09/16 11:16:24;;;;;;;7.05;6.85;;;;;;;21.94;60.36;92449.69;5069550;28;20229;-72
2022/09/16 11:19:09;;;;;;;7.15;6.85;;;;;;;22.40;59.30;92440.63;5066459;28;20183;-72
2022/09/16 11:22:31;;;;;;;6.75;6.45;;;;;;;22.50;56.38;92434.72;5068727;28;20271;-72
2022/09/16 11:25:15;;;;;;;6.97;6.68;;;;;;;22.77;54.14;92433.66;5026915;28;20226;-73
2022/09/16 11:28:05;;;;;;;7.07;6.60;;;;;;;23.14;54.47;92413.28;5026920;28;20203;-70
2022/09/16 11:30:37;;;;;;;7.03;6.70;;;;;;;23.37;52.48;92408.69;5062857;28;20236;-71
2022/09/16 11:33:44;;;;;;;7.65;7.13;;;;;;;23.58;49.48;92403.59;5068737;28;20199;-71
2022/09/16 11:36:45;;;;;;;7.57;7.18;;;;;;;23.88;48.84;92392.88;5050788;28;20226;-70
2022/09/16 11:39:16;;;;;;;6.85;6.50;;;;;;;24.37;48.73;92379.28;5057283;28;20255;-70
2022/09/16 11:42:04;;;;;;;6.43;6.22;;;;;;;24.68;46.99;92378.78;5058435;28;20218;-72
2022/09/16 11:44:41;;;;;;;6.20;6.00;;;;;;;25.03;45.86;92371.00;5066957;28;20215;-72
2022/09/16 11:47:36;;;;;;;7.10;6.70;;;;;;;25.26;44.18;92366.19;5067127;28;20247;-72
2022/09/16 11:50:07;;;;;;;6.70;6.30;;;;;;;25.36;43.52;92348.66;5060802;28;20253;-72
2022/09/16 11:53:16;;;;;;;6.28;6.07;;;;;;;24.91;42.92;92358.75;5083894;28;20188;-74
2022/09/16 11:55:56;;;;;;;7.15;6.65;;;;;;;25.30;42.52;92361.63;5045759;28;20250;-74
2022/09/16 11:58:49;;;;;;;7.15;6.75;;;;;;;25.74;43.65;92348.84;5061041;28;20247;-72
2022/09/16 12:01:22;;;;;;;7.63;6.70;;;;;;;25.34;43.69;92335.69;5065100;28;20212;-73
2022/09/16 12:04:02;;;;;;;7.57;6.85;;;;;;;25.48;43.21;92353.72;5068254;28;20197;-74
2022/09/16 12:06:33;;;;;;;7.85;7.05;;;;;;;25.57;41.64;92348.78;5068501;28;20188;-73
2022/09/16 12:09:08;;;;;;;7.13;6.70;;;;;;;26.31;40.03;92355.84;5067420;28;20254;-73
2022/09/16 12:11:38;;;;;;;7.63;6.93;;;;;;;26.56;42.22;92355.84;5068101;28;20255;-73
2022/09/16 12:14:23;;;;;;;9.10;7.18;;;;;;;26.31;40.80;92374.56;5068456;28;20298;-73
2022/09/16 12:16:56;;;;;;;7.25;6.60;;;;;;;26.85;40.07;92364.66;5058603;28;20336;-74
2022/09/16 12:19:33;;;;;;;6.68;6.28;;;;;;;26.29;42.77;92362.72;5071314;28;20224;-75
2022/09/16 12:22:09;;;;;;;8.25;7.70;;;;;;;25.99;47.60;92381.00;5070197;28;20184;-74
2022/09/16 12:24:42;;;;;;;6.53;6.10;;;;;;;25.91;46.68;92374.88;5070021;28;20220;-74
2022/09/16 12:27:28;;;;;;;8.07;6.50;;;;;;;25.93;47.04;92393.22;5071979;28;20181;-75
2022/09/16 12:30:01;;;;;;;6.88;6.38;;;;;;;25.36;48.01;92402.91;5071952;28;20233;-74
2022/09/16 12:32:56;;;;;;;7.40;6.80;;;;;;;25.14;50.08;92398.56;5064783;28;20181;-72
2022/09/16 12:35:33;;;;;;;7.28;6.82;;;;;;;24.67;50.55;92393.28;5081169;28;20292;-73
2022/09/16 12:37:59;;;;;;;8.02;7.45;;;;;;;24.90;45.98;92356.44;5068559;28;20220;-75
2022/09/16 12:40:28;;;;;;;8.50;7.05;;;;;;;24.59;46.75;92397.00;5070116;28;20230;-74
2022/09/16 12:42:56;;;;;;;9.25;6.57;;;;;;;24.69;49.58;92397.13;5069525;28;20193;-74
2022/09/16 12:45:37;;;;;;;7.72;7.28;;;;;;;24.73;48.92;92427.28;5069422;28;20235;-75
2022/09/16 12:48:14;;;;;;;7.35;6.78;;;;;;;25.00;52.09;92436.63;5070619;28;20194;-75
2022/09/16 12:50:51;;;;;;;7.47;7.07;;;;;;;24.60;53.73;92443.91;5070142;28;20238;-74
2022/09/16 12:53:36;;;;;;;8.15;7.38;;;;;;;24.20;56.61;92436.69;5060256;28;20211;-74
2022/09/16 12:56:14;;;;;;;7.95;7.40;;;;;;;23.86;58.12;92451.13;5071308;28;20231;-73
2022/09/16 12:59:07;;;;;;;8.40;7.78;;;;;;;22.90;61.86;92469.63;5071755;28;20214;-74
2022/09/16 13:01:49;;;;;;;9.48;8.63;;;;;;;23.40;60.60;92476.47;5066356;28;20208;-75
2022/09/16 13:04:24;;;;;;;6.95;6.55;;;;;;;23.50;62.28;92452.59;5069802;28;20234;-75
2022/09/16 13:06:57;;;;;;;7.90;7.40;;;;;;;23.13;63.56;92485.56;5069861;28;20183;-74
2022/09/16 13:09:27;;;;;;;8.25;7.65;;;;;;;22.47;66.23;92483.34;5071138;28;20220;-74
2022/09/16 13:12:04;;;;;;;8.07;7.57;;;;;;;22.33;72.06;92488.41;5064044;28;20185;-74
2022/09/16 13:14:42;;;;;;;7.88;7.45;;;;;;;21.85;75.82;92462.44;5070119;28;20224;-73
2022/09/16 13:17:10;;;;;;;9.07;8.18;;;;;;;21.73;77.82;92451.91;5065941;28;20196;-73
2022/09/16 13:19:35;;;;;;;7.65;7.18;;;;;;;21.90;78.75;92502.00;5069672;28;20247;-73
2022/09/16 13:22:32;;;;;;;7.80;7.20;;;;;;;21.47;74.59;92516.31;5071563;28;20275;-71
2022/09/16 13:25:10;;;;;;;7.00;6.60;;;;;;;21.33;74.98;92493.97;5064039;28;20233;-71
2022/09/16 13:27:38;;;;;;;8.73;7.82;;;;;;;20.91;74.47;92506.25;5070290;28;20190;-73
2022/09/16 13:30:12;;;;;;;8.40;7.90;;;;;;;20.47;73.65;92487.78;5067347;28;20235;-72
2022/09/16 13:32:57;;;;;;;8.00;7.60;;;;;;;20.37;72.76;92464.41;5067688;28;20203;-73
2022/09/16 13:35:35;;;;;;;7.90;7.25;;;;;;;20.33;76.21;92466.22;5063865;28;20238;-74
2022/09/16 13:38:21;;;;;;;8.18;7.57;;;;;;;20.41;77.37;92443.28;5065723;28;20283;-73
2022/09/16 13:40:58;;;;;;;8.43;7.85;;;;;;;19.95;75.55;92386.47;5064945;28;20239;-74
2022/09/16 13:43:28;;;;;;;8.67;7.83;;;;;;;20.48;75.15;92428.31;5069947;28;20200;-73
2022/09/16 13:46:25;;;;;;;8.40;7.07;;;;;;;20.44;78.47;92411.53;5067535;28;20224;-73
2022/09/16 13:49:15;;;;;;;8.77;7.93;;;;;;;20.70;72.78;92371.97;5051351;28;20203;-72
2022/09/16 13:51:46;;;;;;;8.02;7.40;;;;;;;20.96;73.95;92341.47;5066266;28;20197;-73
2022/09/16 13:54:31;;;;;;;8.07;7.68;;;;;;;20.79;71.19;92344.47;5066719;28;20726;-73
2022/09/16 13:57:02;;;;;;;8.67;8.27;;;;;;;20.80;69.50;92343.34;5069386;28;20243;-73
2022/09/16 13:59:49;;;;;;;9.38;7.88;;;;;;;21.04;66.69;92335.97;5070420;28;20231;-74
2022/09/16 14:02:30;;;;;;;8.15;7.47;;;;;;;21.45;67.09;92353.03;5063908;28;20188;-74
2022/09/16 14:04:58;;;;;;;7.93;7.20;;;;;;;21.48;66.14;92350.47;5065613;28;20222;-73
2022/09/16 14:07:23;;;;;;;7.50;7.15;;;;;;;21.41;64.44;92360.97;5068629;28;20186;-73
2022/09/16 14:09:58;;;;;;;8.13;7.63;;;;;;;21.24;65.64;92374.66;5070461;28;20225;-74
2022/09/16 14:12:40;;;;;;;7.53;7.13;;;;;;;21.40;60.98;92383.31;5071867;28;20193;-76
2022/09/16 14:15:07;;;;;;;8.80;8.10;;;;;;;21.53;64.25;92382.06;5067946;28;20224;-73
2022/09/16 14:17:43;;;;;;;8.50;7.88;;;;;;;21.84;62.17;92391.78;5069676;28;20218;-75
2022/09/16 14:20:21;;;;;;;7.97;7.45;;;;;;;21.62;68.83;92400.47;5069614;28;20225;-73
2022/09/16 14:22:47;;;;;;;8.80;8.18;;;;;;;21.96;68.15;92413.66;5064055;28;20193;-72
2022/09/16 14:25:28;;;;;;;8.88;7.93;;;;;;;21.92;72.44;92422.69;5068838;28;20214;-74
2022/09/16 14:28:16;;;;;;;8.73;8.20;;;;;;;21.69;75.11;92400.59;5063838;28;20200;-73
2022/09/16 14:31:20;;;;;;;11.07;9.70;;;;;;;21.51;75.18;92394.94;5065764;28;20221;-74
2022/09/16 14:34:00;;;;;;;10.07;9.13;;;;;;;21.46;72.91;92367.88;5065880;28;20184;-73
2022/09/16 14:36:29;;;;;;;9.93;7.13;;;;;;;21.61;68.39;92388.28;5069978;28;21059;-75
2022/09/16 14:39:10;;;;;;;8.60;7.65;;;;;;;21.40;65.81;92374.59;5069606;28;20232;-74
2022/09/16 14:41:38;;;;;;;8.95;8.15;;;;;;;21.84;67.25;92365.19;5068344;28;20206;-74
2022/09/16 14:44:08;;;;;;;8.38;7.82;;;;;;;21.96;69.61;92376.44;5067927;28;20268;-74
2022/09/16 14:46:40;;;;;;;8.50;7.93;;;;;;;21.94;69.71;92370.72;5068515;28;20198;-73
2022/09/16 14:49:10;;;;;;;9.32;8.40;;;;;;;21.27;65.61;92359.91;5065746;28;20239;-71
2022/09/16 14:51:37;;;;;;;8.68;7.90;;;;;;;21.35;64.99;92364.25;5069140;28;20183;-70
2022/09/16 14:54:03;;;;;;;8.80;7.97;;;;;;;21.44;66.27;92346.22;5065652;28;20228;-70
2022/09/16 14:56:28;;;;;;;7.78;7.28;;;;;;;21.41;65.62;92368.94;5068640;28;20302;-73
2022/09/16 14:58:56;;;;;;;8.30;7.78;;;;;;;21.41;62.05;92374.25;5063288;28;20253;-74
2022/09/16 15:01:26;;;;;;;7.93;7.30;;;;;;;21.41;60.29;92352.22;5066988;28;20202;-73
2022/09/16 15:04:18;;;;;;;7.50;7.00;;;;;;;21.61;60.70;92389.06;5068998;28;20217;-74
2022/09/16 15:06:51;;;;;;;8.02;7.40;;;;;;;21.54;61.35;92388.16;5063203;28;20191;-73
2022/09/16 15:09:30;;;;;;;7.32;6.65;;;;;;;21.67;63.27;92385.00;5056012;28;20225;-73
2022/09/16 15:12:00;;;;;;;7.30;6.75;;;;;;;21.66;61.71;92385.34;5068101;28;20187;-75
2022/09/16 15:14:25;;;;;;;7.60;7.13;;;;;;;21.57;62.03;92388.19;5065117;28;20241;-73
2022/09/16 15:17:02;;;;;;;8.05;7.50;;;;;;;21.67;62.20;92378.91;5069416;28;20204;-73
2022/09/16 15:19:37;;;;;;;7.85;7.45;;;;;;;21.62;62.68;92384.53;5061992;28;20228;-73
2022/09/16 15:22:05;;;;;;;8.25;7.78;;;;;;;21.45;62.60;92391.00;5065269;28;20210;-76
2022/09/16 15:24:33;;;;;;;8.02;7.57;;;;;;;21.49;64.60;92401.72;5068695;28;20221;-72
2022/09/16 15:27:00;;;;;;;8.13;7.50;;;;;;;21.20;65.02;92357.13;5068339;28;20188;-73
2022/09/16 15:29:30;;;;;;;8.02;7.53;;;;;;;20.99;67.11;92317.66;5063807;28;20227;-72
2022/09/16 15:32:13;;;;;;;8.55;7.85;;;;;;;20.81;71.82;92287.28;5068957;28;20331;-72
2022/09/16 15:34:38;;;;;;;8.43;7.93;;;;;;;20.60;76.68;92282.31;5067987;28;20217;-73
2022/09/16 15:37:04;;;;;;;8.13;7.63;;;;;;;20.32;72.50;92249.91;5067994;28;20244;-72
2022/09/16 15:39:34;;;;;;;7.55;7.15;;;;;;;20.52;75.13;92243.50;5069189;28;20235;-74
2022/09/16 15:42:15;;;;;;;7.78;7.07;;;;;;;20.54;75.65;92246.59;5069545;28;20172;-71
2022/09/16 15:44:49;;;;;;;7.88;7.18;;;;;;;20.25;74.18;92259.59;5059759;28;20227;-73
2022/09/16 15:47:25;;;;;;;8.10;7.67;;;;;;;20.34;73.84;92252.22;5069128;28;20269;-76
2022/09/16 15:49:58;;;;;;;8.10;7.38;;;;;;;20.49;73.05;92252.16;5069203;28;20247;-73
2022/09/16 15:52:24;;;;;;;8.45;7.80;;;;;;;20.54;70.97;92275.00;5065358;28;20194;-71
2022/09/16 15:54:55;;;;;;;8.85;7.93;;;;;;;20.60;71.53;92270.94;5068035;28;20241;-72
2022/09/16 15:57:32;;;;;;;10.82;8.00;;;;;;;20.86;72.31;92259.72;5068163;28;20235;-72